createdAt,value
2022-09-10T00:00:25.139Z,49.77
2022-09-10T00:02:57.722Z,49.98
2022-09-10T00:05:27.794Z,50.13
2022-09-10T00:07:58.414Z,50.01
2022-09-10T00:10:28.162Z,49.99
2022-09-10T00:12:57.943Z,50.33
2022-09-10T00:15:27.685Z,50.46
2022-09-10T00:18:00.060Z,50.39
2022-09-10T00:20:29.919Z,50.48
2022-09-10T00:22:59.664Z,50.78
2022-09-10T00:25:33.285Z,51.13
2022-09-10T00:28:03.195Z,50.82
2022-09-10T00:30:33.212Z,50.67
2022-09-10T00:33:06.119Z,50.69
2022-09-10T00:35:35.965Z,50.86
2022-09-10T00:38:06.667Z,50.88
2022-09-10T00:40:37.636Z,50.77
2022-09-10T00:43:14.430Z,51.19
2022-09-10T00:45:46.826Z,51.17
2022-09-10T00:48:23.531Z,50.69
2022-09-10T00:50:54.978Z,51.04
2022-09-10T00:53:30.979Z,51.31
2022-09-10T00:56:05.058Z,51.28
2022-09-10T00:58:35.484Z,51.34
2022-09-10T01:01:06.448Z,50.91
2022-09-10T01:03:39.202Z,51.39
2022-09-10T01:06:10.712Z,51.06
2022-09-10T01:08:40.652Z,50.90
2022-09-10T01:11:27.162Z,50.98
2022-09-10T01:14:12.582Z,50.93
2022-09-10T01:16:51.713Z,51.41
2022-09-10T01:19:50.964Z,51.27
2022-09-10T01:22:34.010Z,51.19
2022-09-10T01:25:10.932Z,51.17
2022-09-10T01:27:47.689Z,51.38
2022-09-10T01:30:22.195Z,51.13
2022-09-10T01:33:02.298Z,51.64
2022-09-10T01:35:41.556Z,51.12
2022-09-10T01:38:15.881Z,51.55
2022-09-10T01:40:46.731Z,51.44
2022-09-10T01:43:23.648Z,51.75
2022-09-10T01:46:14.194Z,51.85
2022-09-10T01:49:06.673Z,51.53
2022-09-10T01:51:49.155Z,51.34
2022-09-10T01:54:35.360Z,51.75
2022-09-10T01:57:13.494Z,51.75
2022-09-10T01:59:54.393Z,51.55
2022-09-10T02:02:28.831Z,51.67
2022-09-10T02:05:01.633Z,51.13
2022-09-10T02:07:35.022Z,51.11
2022-09-10T02:10:08.412Z,51.46
2022-09-10T02:12:44.786Z,51.42
2022-09-10T02:15:38.876Z,51.54
2022-09-10T02:18:14.690Z,51.72
2022-09-10T02:20:45.459Z,51.62
2022-09-10T02:23:19.680Z,51.71
2022-09-10T02:25:50.810Z,51.70
2022-09-10T02:28:20.685Z,51.76
2022-09-10T02:30:53.082Z,51.90
2022-09-10T02:33:22.990Z,52.15
2022-09-10T02:35:53.826Z,51.74
2022-09-10T02:38:24.463Z,51.86
2022-09-10T02:40:55.743Z,51.70
2022-09-10T02:43:26.968Z,51.78
2022-09-10T02:46:02.522Z,51.65
2022-09-10T02:48:32.531Z,51.89
2022-09-10T02:51:02.795Z,51.74
2022-09-10T02:53:33.143Z,51.57
2022-09-10T02:56:07.730Z,51.80
2022-09-10T02:58:39.053Z,51.76
2022-09-10T03:01:14.915Z,51.89
2022-09-10T03:03:46.012Z,51.90
2022-09-10T03:06:15.828Z,51.98
2022-09-10T03:08:45.642Z,51.88
2022-09-10T03:11:16.718Z,52.05
2022-09-10T03:13:47.957Z,52.07
2022-09-10T03:16:21.226Z,52.12
2022-09-10T03:18:52.079Z,52.01
2022-09-10T03:21:25.215Z,51.79
2022-09-10T03:23:58.258Z,52.23
2022-09-10T03:26:32.080Z,52.23
2022-09-10T03:29:02.913Z,51.88
2022-09-10T03:31:40.321Z,51.96
2022-09-10T03:34:10.467Z,52.29
2022-09-10T03:36:40.274Z,51.99
2022-09-10T03:39:12.660Z,52.16
2022-09-10T03:41:42.491Z,52.48
2022-09-10T03:44:12.358Z,52.09
2022-09-10T03:46:45.603Z,52.44
2022-09-10T03:49:18.435Z,52.57
2022-09-10T03:51:48.447Z,52.28
2022-09-10T03:54:19.366Z,52.35
2022-09-10T03:56:49.611Z,52.33
2022-09-10T03:59:19.501Z,52.31
2022-09-10T04:01:52.313Z,52.22
2022-09-10T04:04:23.228Z,51.95
2022-09-10T04:06:55.427Z,52.09
2022-09-10T04:09:28.377Z,52.13
2022-09-10T04:11:58.935Z,52.21
2022-09-10T04:14:29.955Z,52.27
2022-09-10T04:17:04.529Z,52.36
2022-09-10T04:19:35.472Z,51.84
2022-09-10T04:22:05.831Z,52.61
2022-09-10T04:24:35.755Z,52.30
2022-09-10T04:27:08.177Z,52.04
2022-09-10T04:29:38.139Z,52.34
2022-09-10T04:32:10.716Z,52.34
2022-09-10T04:34:40.536Z,52.25
2022-09-10T04:37:10.399Z,52.46
2022-09-10T04:39:40.490Z,52.66
2022-09-10T04:42:10.378Z,52.57
2022-09-10T04:44:40.493Z,52.50
2022-09-10T04:47:12.991Z,52.79
2022-09-10T04:49:43.556Z,53.00
2022-09-10T04:52:14.407Z,52.77
2022-09-10T04:54:44.228Z,52.77
2022-09-10T04:57:15.125Z,52.71
2022-09-10T04:59:45.466Z,52.77
2022-09-10T05:02:19.018Z,52.98
2022-09-10T05:04:49.298Z,53.01
2022-09-10T05:07:19.123Z,52.90
2022-09-10T05:09:49.004Z,52.94
2022-09-10T05:12:20.072Z,52.81
2022-09-10T05:14:49.834Z,52.61
2022-09-10T05:17:22.237Z,53.20
2022-09-10T05:19:52.117Z,53.42
2022-09-10T05:22:28.548Z,53.40
2022-09-10T05:25:03.643Z,52.87
2022-09-10T05:27:35.468Z,52.59
2022-09-10T05:30:05.911Z,52.57
2022-09-10T05:32:38.520Z,52.22
2022-09-10T05:35:10.972Z,52.07
2022-09-10T05:37:43.734Z,52.01
2022-09-10T05:40:16.643Z,52.10
2022-09-10T05:42:47.041Z,51.83
2022-09-10T05:45:18.802Z,51.71
2022-09-10T05:47:53.078Z,51.76
2022-09-10T05:50:26.510Z,51.43
2022-09-10T05:52:56.750Z,51.23
2022-09-10T05:55:30.470Z,50.88
2022-09-10T05:58:00.347Z,50.68
2022-09-10T06:00:30.420Z,50.71
2022-09-10T06:03:06.067Z,51.21
2022-09-10T06:05:44.480Z,50.75
2022-09-10T06:08:15.484Z,50.17
2022-09-10T06:10:57.445Z,50.23
2022-09-10T06:13:29.839Z,50.02
2022-09-10T06:16:00.342Z,49.52
2022-09-10T06:18:34.692Z,49.37
2022-09-10T06:21:26.196Z,49.31
2022-09-10T06:23:58.138Z,48.78
2022-09-10T06:26:31.253Z,48.90
2022-09-10T06:29:06.260Z,48.30
2022-09-10T06:31:37.489Z,48.62
2022-09-10T06:34:11.643Z,48.52
2022-09-10T06:36:42.048Z,48.15
2022-09-10T06:39:11.916Z,48.57
2022-09-10T06:41:51.216Z,48.05
2022-09-10T06:44:56.324Z,47.97
2022-09-10T06:48:34.709Z,47.87
2022-09-10T06:50:56.109Z,48.21
2022-09-10T06:53:33.426Z,47.68
2022-09-10T06:56:05.976Z,47.18
2022-09-10T06:58:39.253Z,46.85
2022-09-10T07:01:14.147Z,46.73
2022-09-10T07:03:48.296Z,46.78
2022-09-10T07:06:23.220Z,45.99
2022-09-10T07:08:59.674Z,46.80
2022-09-10T07:11:39.274Z,46.07
2022-09-10T07:14:14.438Z,46.60
2022-09-10T07:16:46.369Z,45.85
2022-09-10T07:19:17.778Z,45.44
2022-09-10T07:21:51.363Z,45.49
2022-09-10T07:24:21.965Z,45.49
2022-09-10T07:27:07.183Z,46.00
2022-09-10T07:29:38.767Z,45.05
2022-09-10T07:32:13.884Z,45.73
2022-09-10T07:34:44.256Z,45.54
2022-09-10T07:37:18.308Z,45.29
2022-09-10T07:39:49.594Z,45.23
2022-09-10T07:42:20.159Z,44.84
2022-09-10T07:44:51.256Z,43.46
2022-09-10T07:47:21.713Z,43.73
2022-09-10T07:49:52.910Z,43.30
2022-09-10T07:52:28.110Z,43.66
2022-09-10T07:54:58.978Z,44.11
2022-09-10T07:57:31.353Z,43.84
2022-09-10T08:00:04.479Z,43.04
2022-09-10T08:02:46.916Z,43.01
2022-09-10T08:05:22.439Z,41.99
2022-09-10T08:07:57.218Z,42.37
2022-09-10T08:10:29.506Z,43.23
2022-09-10T08:13:00.596Z,41.98
2022-09-10T08:15:30.621Z,41.59
2022-09-10T08:18:03.108Z,41.56
2022-09-10T08:20:33.761Z,43.31
2022-09-10T08:23:06.587Z,42.45
2022-09-10T08:25:38.106Z,42.85
2022-09-10T08:28:08.571Z,42.43
2022-09-10T08:30:38.778Z,41.27
2022-09-10T08:33:08.918Z,40.77
2022-09-10T08:35:38.806Z,41.87
2022-09-10T08:38:12.850Z,41.80
2022-09-10T08:40:44.919Z,40.35
2022-09-10T08:43:16.180Z,40.00
2022-09-10T08:45:53.844Z,41.92
2022-09-10T08:48:26.650Z,39.99
2022-09-10T08:51:01.720Z,39.74
2022-09-10T08:53:45.940Z,40.61
2022-09-10T08:56:20.144Z,40.23
2022-09-10T08:58:57.254Z,39.79
2022-09-10T09:01:34.763Z,39.60
2022-09-10T09:04:13.389Z,39.91
2022-09-10T09:06:48.284Z,38.64
2022-09-10T09:09:22.055Z,39.92
2022-09-10T09:12:00.109Z,40.60
2022-09-10T09:14:48.071Z,39.08
2022-09-10T09:17:38.740Z,38.05
2022-09-10T09:20:18.395Z,37.44
2022-09-10T09:23:09.709Z,37.48
2022-09-10T09:25:50.950Z,37.90
2022-09-10T09:28:31.593Z,37.47
2022-09-10T09:31:09.480Z,37.04
2022-09-10T09:33:40.524Z,36.39
2022-09-10T09:36:18.533Z,37.05
2022-09-10T09:38:51.685Z,35.84
2022-09-10T09:41:33.102Z,35.98
2022-09-10T09:44:08.321Z,35.60
2022-09-10T09:46:39.029Z,35.18
2022-09-10T09:49:16.676Z,34.84
2022-09-10T09:51:51.874Z,34.20
2022-09-10T09:57:21.866Z,33.80
2022-09-10T09:59:53.185Z,34.47
2022-09-10T10:02:25.746Z,33.17
2022-09-10T10:05:03.501Z,33.20
2022-09-10T10:07:36.343Z,32.91
2022-09-10T10:10:25.067Z,33.81
2022-09-10T10:12:58.323Z,34.18
2022-09-10T10:15:46.285Z,34.67
2022-09-10T10:18:31.863Z,35.71
2022-09-10T10:21:16.543Z,35.49
2022-09-10T10:23:46.709Z,35.68
2022-09-10T10:26:27.687Z,36.07
2022-09-10T10:29:04.216Z,34.81
2022-09-10T10:31:43.538Z,34.47
2022-09-10T10:34:35.421Z,33.85
2022-09-10T10:37:12.295Z,35.46
2022-09-10T10:40:02.135Z,34.45
2022-09-10T10:42:37.123Z,34.60
2022-09-10T10:45:24.470Z,34.73
2022-09-10T10:48:02.555Z,35.80
2022-09-10T10:50:39.856Z,36.23
2022-09-10T10:53:21.599Z,35.50
2022-09-10T10:55:59.837Z,33.65
2022-09-10T10:58:41.725Z,31.38
2022-09-10T11:01:22.817Z,29.30
2022-09-10T11:04:02.330Z,29.12
2022-09-10T11:06:38.452Z,29.99
2022-09-10T11:09:14.721Z,32.43
2022-09-10T11:11:55.294Z,33.45
2022-09-10T11:14:32.748Z,35.37
2022-09-10T11:17:08.670Z,35.97
2022-09-10T11:19:56.398Z,35.03
2022-09-10T11:22:39.798Z,35.35
2022-09-10T11:25:20.661Z,35.82
2022-09-10T11:27:55.371Z,35.82
2022-09-10T11:30:25.298Z,35.40
2022-09-10T11:33:05.063Z,35.39
2022-09-10T11:35:40.189Z,32.27
2022-09-10T11:38:20.740Z,32.54
2022-09-10T11:40:58.361Z,32.27
2022-09-10T11:43:37.283Z,31.57
2022-09-10T11:46:15.188Z,30.38
2022-09-10T11:48:53.443Z,29.61
2022-09-10T11:51:30.595Z,30.59
2022-09-10T11:54:01.058Z,30.07
2022-09-10T11:56:46.203Z,31.18
2022-09-10T11:59:37.437Z,32.65
2022-09-10T12:02:29.050Z,34.08
2022-09-10T12:05:10.977Z,34.61
2022-09-10T12:07:51.120Z,34.89
2022-09-10T12:10:32.271Z,35.51
2022-09-10T12:13:02.567Z,35.71
2022-09-10T12:15:34.539Z,36.39
2022-09-10T12:18:07.458Z,36.05
2022-09-10T12:20:47.272Z,36.83
2022-09-10T12:23:21.073Z,37.00
2022-09-10T12:26:00.606Z,36.99
2022-09-10T12:29:00.456Z,36.31
2022-09-10T12:31:32.598Z,36.78
2022-09-10T12:34:18.006Z,36.81
2022-09-10T12:37:19.166Z,37.42
2022-09-10T12:39:52.416Z,36.78
2022-09-10T12:42:42.750Z,36.65
2022-09-10T12:45:12.556Z,37.00
2022-09-10T12:47:53.062Z,37.57
2022-09-10T12:50:32.353Z,37.89
2022-09-10T12:53:27.001Z,37.70
2022-09-10T12:56:04.862Z,38.21
2022-09-10T12:58:59.965Z,37.62
2022-09-10T13:01:43.199Z,38.15
2022-09-10T13:04:28.535Z,37.56
2022-09-10T13:07:01.871Z,36.92
2022-09-10T13:09:34.447Z,37.91
2022-09-10T13:12:18.998Z,38.98
2022-09-10T13:14:52.880Z,39.81
2022-09-10T13:18:03.272Z,39.64
2022-09-10T13:20:35.635Z,39.67
2022-09-10T13:23:07.043Z,40.61
2022-09-10T13:25:40.554Z,40.75
2022-09-10T13:28:40.972Z,40.63
2022-09-10T13:31:21.812Z,40.71
2022-09-10T13:34:13.416Z,41.55
2022-09-10T13:36:55.614Z,39.78
2022-09-10T13:39:46.182Z,40.32
2022-09-10T13:42:34.997Z,40.55
2022-09-10T13:45:22.643Z,40.71
2022-09-10T13:48:02.403Z,40.97
2022-09-10T13:50:39.557Z,40.98
2022-09-10T13:53:11.347Z,41.85
2022-09-10T13:55:43.022Z,42.14
2022-09-10T13:58:17.516Z,41.96
2022-09-10T14:00:55.645Z,43.13
2022-09-10T14:03:33.116Z,42.66
2022-09-10T14:06:05.349Z,43.48
2022-09-10T14:08:38.923Z,43.41
2022-09-10T14:11:16.916Z,44.86
2022-09-10T14:13:55.500Z,45.82
2022-09-10T14:16:30.374Z,44.73
2022-09-10T14:19:05.482Z,43.94
2022-09-10T14:21:35.586Z,44.89
2022-09-10T14:24:05.797Z,44.68
2022-09-10T14:26:36.050Z,44.50
2022-09-10T14:29:25.519Z,42.95
2022-09-10T14:31:55.433Z,44.02
2022-09-10T14:34:34.989Z,44.50
2022-09-10T14:37:25.487Z,44.42
2022-09-10T14:39:56.582Z,44.32
2022-09-10T14:42:29.647Z,43.01
2022-09-10T14:44:59.609Z,43.35
2022-09-10T14:47:34.845Z,43.52
2022-09-10T14:50:34.698Z,43.82
2022-09-10T14:53:04.607Z,43.54
2022-09-10T14:55:35.196Z,43.83
2022-09-10T14:58:05.053Z,43.51
2022-09-10T15:00:35.945Z,43.27
2022-09-10T15:03:05.933Z,42.74
2022-09-10T15:05:39.346Z,43.12
2022-09-10T15:08:09.157Z,43.65
2022-09-10T15:10:39.696Z,44.60
2022-09-10T15:13:09.918Z,44.09
2022-09-10T15:15:39.938Z,44.38
2022-09-10T15:18:14.994Z,44.79
2022-09-10T15:20:47.450Z,45.17
2022-09-10T15:23:18.399Z,45.23
2022-09-10T15:25:53.573Z,43.87
2022-09-10T15:28:23.455Z,42.91
2022-09-10T15:30:53.376Z,43.14
2022-09-10T15:33:23.236Z,42.97
2022-09-10T15:35:55.734Z,43.83
2022-09-10T15:38:25.761Z,44.58
2022-09-10T15:41:06.611Z,45.87
2022-09-10T15:43:41.365Z,47.05
2022-09-10T15:46:12.209Z,47.68
2022-09-10T15:48:43.326Z,48.46
2022-09-10T15:51:17.774Z,48.59
2022-09-10T15:53:48.127Z,48.58
2022-09-10T15:56:18.922Z,48.40
2022-09-10T15:58:52.114Z,47.93
2022-09-10T16:01:21.958Z,48.58
2022-09-10T16:03:55.414Z,48.05
2022-09-10T16:06:31.268Z,48.36
2022-09-10T16:09:03.236Z,47.66
2022-09-10T16:11:34.426Z,47.58
2022-09-10T16:14:07.006Z,48.80
2022-09-10T16:16:38.231Z,49.02
2022-09-10T16:19:09.320Z,48.21
2022-09-10T16:21:41.894Z,48.81
2022-09-10T16:24:12.971Z,48.59
2022-09-10T16:26:45.494Z,48.87
2022-09-10T16:29:16.940Z,47.49
2022-09-10T16:31:46.897Z,47.89
2022-09-10T16:34:19.565Z,47.88
2022-09-10T16:36:53.113Z,47.48
2022-09-10T16:39:23.192Z,48.00
2022-09-10T16:41:53.688Z,47.64
2022-09-10T16:44:23.644Z,48.17
2022-09-10T16:46:53.727Z,47.48
2022-09-10T16:49:23.550Z,48.58
2022-09-10T16:51:56.056Z,48.51
2022-09-10T16:54:30.180Z,48.78
2022-09-10T16:57:00.003Z,48.89
2022-09-10T16:59:29.893Z,48.72
2022-09-10T17:02:00.679Z,48.47
2022-09-10T17:04:32.484Z,48.44
2022-09-10T17:07:04.928Z,47.59
2022-09-10T17:09:34.707Z,47.80
2022-09-10T17:12:04.960Z,46.69
2022-09-10T17:14:35.000Z,48.28
2022-09-10T17:17:05.436Z,48.12
2022-09-10T17:19:35.233Z,48.29
2022-09-10T17:22:07.608Z,48.33
2022-09-10T17:24:37.469Z,48.65
2022-09-10T17:27:07.723Z,48.61
2022-09-10T17:29:38.600Z,49.43
2022-09-10T17:32:08.791Z,49.16
2022-09-10T17:34:38.601Z,49.23
2022-09-10T17:37:11.191Z,49.35
2022-09-10T17:39:40.996Z,48.91
2022-09-10T17:42:10.851Z,48.06
2022-09-10T17:44:40.605Z,48.57
2022-09-10T17:47:10.422Z,47.40
2022-09-10T17:49:40.605Z,46.80
2022-09-10T17:52:14.643Z,46.07
2022-09-10T17:54:44.409Z,46.03
2022-09-10T17:57:14.835Z,46.17
2022-09-10T17:59:44.673Z,46.17
2022-09-10T18:02:16.888Z,45.96
2022-09-10T18:04:46.796Z,46.00
2022-09-10T18:07:19.334Z,45.76
2022-09-10T18:09:49.185Z,46.18
2022-09-10T18:12:19.068Z,46.44
2022-09-10T18:14:48.904Z,45.90
2022-09-10T18:17:18.749Z,46.20
2022-09-10T18:19:48.620Z,46.53
2022-09-10T18:22:20.997Z,45.78
2022-09-10T18:24:50.811Z,47.11
2022-09-10T18:27:20.776Z,47.14
2022-09-10T18:29:50.766Z,46.13
2022-09-10T18:32:20.621Z,46.18
2022-09-10T18:34:50.594Z,46.67
2022-09-10T18:37:23.081Z,46.38
2022-09-10T18:39:53.776Z,46.91
2022-09-10T18:42:23.620Z,46.24
2022-09-10T18:44:53.523Z,47.43
2022-09-10T18:47:43.407Z,46.97
2022-09-10T18:50:13.968Z,47.33
2022-09-10T18:52:46.480Z,47.00
2022-09-10T18:55:16.229Z,47.92
2022-09-10T18:57:46.246Z,47.92
2022-09-10T19:00:17.086Z,48.08
2022-09-10T19:02:47.454Z,48.16
2022-09-10T19:05:17.436Z,48.89
2022-09-10T19:07:51.860Z,48.67
2022-09-10T19:10:21.662Z,49.25
2022-09-10T19:12:51.964Z,48.64
2022-09-10T19:15:21.717Z,47.94
2022-09-10T19:17:51.634Z,48.71
2022-09-10T19:20:21.948Z,49.14
2022-09-10T19:22:54.381Z,49.00
2022-09-10T19:25:24.293Z,49.18
2022-09-10T19:27:54.110Z,49.08
2022-09-10T19:30:24.131Z,49.37
2022-09-10T19:32:53.945Z,49.21
2022-09-10T19:35:24.001Z,49.15
2022-09-10T19:37:56.340Z,49.30
2022-09-10T19:40:26.110Z,49.54
2022-09-10T19:42:56.324Z,49.60
2022-09-10T19:45:27.307Z,49.89
2022-09-10T19:47:59.362Z,49.41
2022-09-10T19:50:31.006Z,49.50
2022-09-10T19:53:03.390Z,49.84
2022-09-10T19:55:34.257Z,50.26
2022-09-10T19:58:04.135Z,50.29
2022-09-10T20:00:46.278Z,49.68
2022-09-10T20:03:16.925Z,50.03
2022-09-10T20:05:46.669Z,50.16
2022-09-10T20:08:19.161Z,50.19
2022-09-10T20:10:52.331Z,49.71
2022-09-10T20:13:23.739Z,49.98
2022-09-10T20:15:53.919Z,49.86
2022-09-10T20:18:29.340Z,50.41
2022-09-10T20:20:59.343Z,49.86
2022-09-10T20:23:31.724Z,50.58
2022-09-10T20:26:10.841Z,49.88
2022-09-10T20:28:41.409Z,49.92
2022-09-10T20:31:13.238Z,50.14
2022-09-10T20:33:45.345Z,50.00
2022-09-10T20:36:17.714Z,50.12
2022-09-10T20:38:50.550Z,49.98
2022-09-10T20:41:20.783Z,50.21
2022-09-10T20:43:54.316Z,49.96
2022-09-10T20:46:26.384Z,50.04
2022-09-10T20:48:56.934Z,49.98
2022-09-10T20:51:26.815Z,49.71
2022-09-10T20:53:59.217Z,50.01
2022-09-10T20:56:29.016Z,50.31
2022-09-10T20:58:59.525Z,49.99
2022-09-10T21:01:31.138Z,50.02
2022-09-10T21:04:03.072Z,50.18
2022-09-10T21:06:35.282Z,49.63
2022-09-10T21:09:08.856Z,49.79
2022-09-10T21:11:38.908Z,49.87
2022-09-10T21:14:10.309Z,50.24
2022-09-10T21:16:42.388Z,49.90
2022-09-10T21:19:14.944Z,50.07
2022-09-10T21:21:46.250Z,50.12
2022-09-10T21:24:22.580Z,50.56
2022-09-10T21:26:53.719Z,50.98
2022-09-10T21:29:24.553Z,50.67
2022-09-10T21:31:54.846Z,50.32
2022-09-10T21:34:24.675Z,50.06
2022-09-10T21:36:55.316Z,49.95
2022-09-10T21:39:27.726Z,50.16
2022-09-10T21:41:58.568Z,50.21
2022-09-10T21:44:28.611Z,49.68
2022-09-10T21:46:58.430Z,50.01
2022-09-10T21:49:28.207Z,50.29
2022-09-10T21:51:58.139Z,50.99
2022-09-10T21:54:30.603Z,50.68
2022-09-10T21:57:00.409Z,50.44
2022-09-10T21:59:30.168Z,50.33
2022-09-10T22:02:00.595Z,50.11
2022-09-10T22:04:30.603Z,50.48
2022-09-10T22:07:00.351Z,50.45
2022-09-10T22:09:32.691Z,50.54
2022-09-10T22:12:02.465Z,50.71
2022-09-10T22:14:33.263Z,50.39
2022-09-10T22:17:03.368Z,50.36
2022-09-10T22:19:33.107Z,51.09
2022-09-10T22:22:02.889Z,51.21
2022-09-10T22:24:35.257Z,51.34
2022-09-10T22:27:05.042Z,51.18
2022-09-10T22:29:34.791Z,51.16
2022-09-10T22:32:04.907Z,51.37
2022-09-10T22:34:34.687Z,51.43
2022-09-10T22:37:04.573Z,51.19
2022-09-10T22:39:37.261Z,51.52
2022-09-10T22:42:07.643Z,51.33
2022-09-10T22:44:37.412Z,51.55
2022-09-10T22:47:08.113Z,51.76
2022-09-10T22:49:37.915Z,51.71
2022-09-10T22:52:07.709Z,51.76
2022-09-10T22:54:40.047Z,51.50
2022-09-10T22:57:10.987Z,51.61
2022-09-10T22:59:41.336Z,51.73
2022-09-10T23:02:11.070Z,51.92
2022-09-10T23:04:42.706Z,51.86
2022-09-10T23:07:13.059Z,51.87
2022-09-10T23:09:45.407Z,52.17
2022-09-10T23:12:15.144Z,52.20
2022-09-10T23:14:44.911Z,52.32
2022-09-10T23:17:15.541Z,52.64
2022-09-10T23:19:47.317Z,52.61
2022-09-10T23:22:17.069Z,52.54
2022-09-10T23:24:49.365Z,52.45
2022-09-10T23:27:19.128Z,52.22
2022-09-10T23:29:48.900Z,52.16
2022-09-10T23:32:18.868Z,52.55
2022-09-10T23:34:50.530Z,52.31
2022-09-10T23:37:20.391Z,52.66
2022-09-10T23:39:53.029Z,52.64
2022-09-10T23:42:22.906Z,52.59
2022-09-10T23:44:53.615Z,52.12
2022-09-10T23:47:23.412Z,52.60
2022-09-10T23:49:53.338Z,52.79
2022-09-10T23:52:23.285Z,52.48
2022-09-10T23:54:56.031Z,52.77
2022-09-10T23:57:28.001Z,52.75
2022-09-10T23:59:58.376Z,52.60
